VPC weather

Cartersville Airport
Cartersville, Georgia, United States

Public forecast

Using degrees Fahrenheit for public forecast. Weather courtesy of forecast.io.

METAR (pilot weather report)

Retrieved 2019/08/20 23:53 UTC (36 minutes ago):

KVPC 202353Z AUTO 00000KT 10SM CLR 29/22 A3006 RMK AO2 SLP164 T02940222 10344 20294 53002

TAF (pilot weather forecast)

Forecast is more than 12 hours old.

Closest forecast is Cobb County-Mc Collum Field, 14.1 nm (26.1 km) ESE. Retrieved 2019/08/20 00:36 UTC (24 hours ago):

TAF KRYY 202334Z 2100/2124 16004KT P6SM VCSH SCT060 SCT250 FM210400 20003KT P6SM SCT250 FM211400 26004KT P6SM SCT035 SCT250 FM211900 24008KT P6SM VCSH SCT040 SCT100 PROB30 2119/2124 VRB15G25KT 4SM TSRA OVC030CB